sensor_id;sensor_type;location;lat;lon;timestamp;temperature;humidity
13835;DHT22;6988;52.614;13.500;2023-02-20T00:03:13;3.00;99.90
13835;DHT22;6988;52.614;13.500;2023-02-20T00:08:05;3.00;99.90
13835;DHT22;6988;52.614;13.500;2023-02-20T00:12:57;2.90;99.90
13835;DHT22;6988;52.614;13.500;2023-02-20T00:17:49;3.00;99.90
13835;DHT22;6988;52.614;13.500;2023-02-20T00:22:43;3.00;99.90
13835;DHT22;6988;52.614;13.500;2023-02-20T00:27:35;3.00;99.90
13835;DHT22;6988;52.614;13.500;2023-02-20T00:32:27;3.00;99.90
13835;DHT22;6988;52.614;13.500;2023-02-20T00:37:19;3.00;99.90
13835;DHT22;6988;52.614;13.500;2023-02-20T00:42:12;3.00;99.90
13835;DHT22;6988;52.614;13.500;2023-02-20T00:47:04;3.00;99.90
13835;DHT22;6988;52.614;13.500;2023-02-20T00:51:56;2.90;99.90
13835;DHT22;6988;52.614;13.500;2023-02-20T00:56:48;2.90;99.90
13835;DHT22;6988;52.614;13.500;2023-02-20T01:01:41;3.00;99.90
13835;DHT22;6988;52.614;13.500;2023-02-20T01:06:34;2.90;99.90
13835;DHT22;6988;52.614;13.500;2023-02-20T01:11:26;2.80;99.90
13835;DHT22;6988;52.614;13.500;2023-02-20T01:16:18;2.90;99.90
13835;DHT22;6988;52.614;13.500;2023-02-20T01:21:11;2.90;99.90
13835;DHT22;6988;52.614;13.500;2023-02-20T01:26:03;2.90;99.90
13835;DHT22;6988;52.614;13.500;2023-02-20T01:30:55;3.00;99.90
13835;DHT22;6988;52.614;13.500;2023-02-20T01:35:47;3.00;99.90
13835;DHT22;6988;52.614;13.500;2023-02-20T01:40:45;3.00;99.90
13835;DHT22;6988;52.614;13.500;2023-02-20T01:45:40;3.00;99.90
13835;DHT22;6988;52.614;13.500;2023-02-20T01:50:36;3.10;99.90
13835;DHT22;6988;52.614;13.500;2023-02-20T01:55:38;3.20;99.90
13835;DHT22;6988;52.614;13.500;2023-02-20T02:00:34;3.30;99.90
13835;DHT22;6988;52.614;13.500;2023-02-20T02:05:28;3.40;99.90
13835;DHT22;6988;52.614;13.500;2023-02-20T02:10:29;3.40;99.90
13835;DHT22;6988;52.614;13.500;2023-02-20T02:15:26;3.40;99.90
13835;DHT22;6988;52.614;13.500;2023-02-20T02:20:42;3.50;99.90
13835;DHT22;6988;52.614;13.500;2023-02-20T02:26:25;3.50;99.90
13835;DHT22;6988;52.614;13.500;2023-02-20T02:32:19;3.60;99.90
13835;DHT22;6988;52.614;13.500;2023-02-20T02:37:33;3.60;99.90
13835;DHT22;6988;52.614;13.500;2023-02-20T02:42:38;3.80;99.90
13835;DHT22;6988;52.614;13.500;2023-02-20T02:47:41;3.80;99.90
13835;DHT22;6988;52.614;13.500;2023-02-20T02:52:41;3.90;99.90
13835;DHT22;6988;52.614;13.500;2023-02-20T02:57:38;3.90;99.90
13835;DHT22;6988;52.614;13.500;2023-02-20T03:02:32;4.00;99.90
13835;DHT22;6988;52.614;13.500;2023-02-20T03:07:28;4.00;99.90
13835;DHT22;6988;52.614;13.500;2023-02-20T03:12:23;4.10;99.90
13835;DHT22;6988;52.614;13.500;2023-02-20T03:17:23;4.10;99.90
13835;DHT22;6988;52.614;13.500;2023-02-20T03:22:24;4.20;99.90
13835;DHT22;6988;52.614;13.500;2023-02-20T03:27:22;4.30;99.90
13835;DHT22;6988;52.614;13.500;2023-02-20T03:32:20;4.30;99.90
13835;DHT22;6988;52.614;13.500;2023-02-20T03:37:33;4.30;99.90
13835;DHT22;6988;52.614;13.500;2023-02-20T03:42:48;4.40;99.90
13835;DHT22;6988;52.614;13.500;2023-02-20T03:48:13;4.50;99.90
13835;DHT22;6988;52.614;13.500;2023-02-20T03:53:10;4.60;99.90
13835;DHT22;6988;52.614;13.500;2023-02-20T03:58:08;4.70;99.90
13835;DHT22;6988;52.614;13.500;2023-02-20T04:03:07;4.70;99.90
13835;DHT22;6988;52.614;13.500;2023-02-20T04:08:09;4.80;99.90
13835;DHT22;6988;52.614;13.500;2023-02-20T04:13:07;4.90;99.90
13835;DHT22;6988;52.614;13.500;2023-02-20T04:18:04;4.90;99.90
13835;DHT22;6988;52.614;13.500;2023-02-20T04:23:08;4.90;99.90
13835;DHT22;6988;52.614;13.500;2023-02-20T04:28:06;5.00;99.90
13835;DHT22;6988;52.614;13.500;2023-02-20T04:33:09;5.00;99.90
13835;DHT22;6988;52.614;13.500;2023-02-20T04:38:03;5.00;99.90
13835;DHT22;6988;52.614;13.500;2023-02-20T04:42:55;5.00;99.90
13835;DHT22;6988;52.614;13.500;2023-02-20T04:47:49;5.10;99.90
13835;DHT22;6988;52.614;13.500;2023-02-20T04:52:41;5.10;99.90
13835;DHT22;6988;52.614;13.500;2023-02-20T04:57:33;5.20;99.90
13835;DHT22;6988;52.614;13.500;2023-02-20T05:02:26;5.20;99.90
13835;DHT22;6988;52.614;13.500;2023-02-20T05:07:19;5.20;99.90
13835;DHT22;6988;52.614;13.500;2023-02-20T05:12:11;5.30;99.90
13835;DHT22;6988;52.614;13.500;2023-02-20T05:17:03;5.20;99.90
13835;DHT22;6988;52.614;13.500;2023-02-20T05:21:54;5.30;99.90
13835;DHT22;6988;52.614;13.500;2023-02-20T05:27:05;5.30;99.90
13835;DHT22;6988;52.614;13.500;2023-02-20T05:31:57;5.40;99.90
13835;DHT22;6988;52.614;13.500;2023-02-20T05:36:49;5.40;99.90
13835;DHT22;6988;52.614;13.500;2023-02-20T05:41:40;5.40;99.90
13835;DHT22;6988;52.614;13.500;2023-02-20T05:46:38;5.50;99.90
13835;DHT22;6988;52.614;13.500;2023-02-20T05:51:30;5.40;99.90
13835;DHT22;6988;52.614;13.500;2023-02-20T05:56:22;5.40;99.90
13835;DHT22;6988;52.614;13.500;2023-02-20T06:01:19;5.40;99.90
13835;DHT22;6988;52.614;13.500;2023-02-20T06:06:15;5.50;99.90
13835;DHT22;6988;52.614;13.500;2023-02-20T06:11:09;5.40;99.90
13835;DHT22;6988;52.614;13.500;2023-02-20T06:16:02;5.40;99.90
13835;DHT22;6988;52.614;13.500;2023-02-20T06:20:54;5.50;99.90
13835;DHT22;6988;52.614;13.500;2023-02-20T06:25:48;5.50;99.90
13835;DHT22;6988;52.614;13.500;2023-02-20T06:30:39;5.50;99.90
13835;DHT22;6988;52.614;13.500;2023-02-20T06:35:31;5.60;99.90
13835;DHT22;6988;52.614;13.500;2023-02-20T06:40:23;5.60;99.90
13835;DHT22;6988;52.614;13.500;2023-02-20T06:45:16;5.70;99.90
13835;DHT22;6988;52.614;13.500;2023-02-20T06:50:08;5.70;99.90
13835;DHT22;6988;52.614;13.500;2023-02-20T06:55:00;5.70;99.90
13835;DHT22;6988;52.614;13.500;2023-02-20T06:59:52;5.80;99.90
13835;DHT22;6988;52.614;13.500;2023-02-20T07:04:48;5.80;99.90
13835;DHT22;6988;52.614;13.500;2023-02-20T07:09:40;5.80;99.90
13835;DHT22;6988;52.614;13.500;2023-02-20T07:14:32;5.90;99.90
13835;DHT22;6988;52.614;13.500;2023-02-20T07:19:23;5.90;99.90
13835;DHT22;6988;52.614;13.500;2023-02-20T07:24:17;6.00;99.90
13835;DHT22;6988;52.614;13.500;2023-02-20T07:29:11;6.00;99.90
13835;DHT22;6988;52.614;13.500;2023-02-20T07:34:04;6.00;99.90
13835;DHT22;6988;52.614;13.500;2023-02-20T07:39:01;6.10;99.90
13835;DHT22;6988;52.614;13.500;2023-02-20T07:43:57;6.20;99.90
13835;DHT22;6988;52.614;13.500;2023-02-20T07:48:49;6.30;99.90
13835;DHT22;6988;52.614;13.500;2023-02-20T07:53:46;6.40;99.90
13835;DHT22;6988;52.614;13.500;2023-02-20T07:58:39;6.40;99.90
13835;DHT22;6988;52.614;13.500;2023-02-20T08:03:32;6.50;99.90
13835;DHT22;6988;52.614;13.500;2023-02-20T08:08:24;6.60;99.90
13835;DHT22;6988;52.614;13.500;2023-02-20T08:13:16;6.60;99.90
13835;DHT22;6988;52.614;13.500;2023-02-20T08:18:08;6.70;99.90
13835;DHT22;6988;52.614;13.500;2023-02-20T08:23:01;6.80;99.90
13835;DHT22;6988;52.614;13.500;2023-02-20T08:27:54;6.80;99.90
13835;DHT22;6988;52.614;13.500;2023-02-20T08:32:46;6.90;99.90
13835;DHT22;6988;52.614;13.500;2023-02-20T08:37:38;6.90;99.90
13835;DHT22;6988;52.614;13.500;2023-02-20T08:42:32;7.00;99.90
13835;DHT22;6988;52.614;13.500;2023-02-20T08:47:24;7.10;99.90
13835;DHT22;6988;52.614;13.500;2023-02-20T08:52:16;7.10;99.90
13835;DHT22;6988;52.614;13.500;2023-02-20T08:57:08;7.10;99.90
13835;DHT22;6988;52.614;13.500;2023-02-20T09:02:01;7.20;99.90
13835;DHT22;6988;52.614;13.500;2023-02-20T09:06:53;7.30;99.90
13835;DHT22;6988;52.614;13.500;2023-02-20T09:11:45;7.30;99.90
13835;DHT22;6988;52.614;13.500;2023-02-20T09:16:37;7.40;99.90
13835;DHT22;6988;52.614;13.500;2023-02-20T09:21:32;7.50;99.90
13835;DHT22;6988;52.614;13.500;2023-02-20T09:26:24;7.60;99.90
13835;DHT22;6988;52.614;13.500;2023-02-20T09:31:16;7.70;99.90
13835;DHT22;6988;52.614;13.500;2023-02-20T09:36:08;7.80;99.90
13835;DHT22;6988;52.614;13.500;2023-02-20T09:41:02;7.90;99.90
13835;DHT22;6988;52.614;13.500;2023-02-20T09:46:00;7.90;99.90
13835;DHT22;6988;52.614;13.500;2023-02-20T09:51:01;8.10;99.90
13835;DHT22;6988;52.614;13.500;2023-02-20T09:55:55;8.10;99.90
13835;DHT22;6988;52.614;13.500;2023-02-20T10:00:51;8.20;99.90
13835;DHT22;6988;52.614;13.500;2023-02-20T10:05:43;8.30;99.90
13835;DHT22;6988;52.614;13.500;2023-02-20T10:10:36;8.40;99.90
13835;DHT22;6988;52.614;13.500;2023-02-20T10:15:34;8.50;99.90
13835;DHT22;6988;52.614;13.500;2023-02-20T10:20:36;8.50;99.90
13835;DHT22;6988;52.614;13.500;2023-02-20T10:25:39;8.50;99.90
13835;DHT22;6988;52.614;13.500;2023-02-20T10:30:38;8.50;99.90
13835;DHT22;6988;52.614;13.500;2023-02-20T10:35:39;8.60;99.90
13835;DHT22;6988;52.614;13.500;2023-02-20T10:40:38;8.70;99.90
13835;DHT22;6988;52.614;13.500;2023-02-20T10:45:41;8.80;99.90
13835;DHT22;6988;52.614;13.500;2023-02-20T10:50:44;8.90;99.90
13835;DHT22;6988;52.614;13.500;2023-02-20T10:55:42;9.00;99.90
13835;DHT22;6988;52.614;13.500;2023-02-20T11:00:43;9.10;99.90
13835;DHT22;6988;52.614;13.500;2023-02-20T11:05:46;9.20;99.90
13835;DHT22;6988;52.614;13.500;2023-02-20T11:10:42;9.40;99.90
13835;DHT22;6988;52.614;13.500;2023-02-20T11:15:34;9.60;99.90
13835;DHT22;6988;52.614;13.500;2023-02-20T11:20:44;9.70;99.90
13835;DHT22;6988;52.614;13.500;2023-02-20T11:25:37;9.70;99.90
13835;DHT22;6988;52.614;13.500;2023-02-20T11:30:34;9.70;99.90
13835;DHT22;6988;52.614;13.500;2023-02-20T11:35:32;9.70;99.90
13835;DHT22;6988;52.614;13.500;2023-02-20T11:40:30;9.80;99.90
13835;DHT22;6988;52.614;13.500;2023-02-20T11:45:24;9.80;99.90
13835;DHT22;6988;52.614;13.500;2023-02-20T11:50:19;9.80;99.90
13835;DHT22;6988;52.614;13.500;2023-02-20T11:55:19;9.80;99.90
13835;DHT22;6988;52.614;13.500;2023-02-20T12:00:16;9.80;99.90
13835;DHT22;6988;52.614;13.500;2023-02-20T12:05:11;9.80;99.90
13835;DHT22;6988;52.614;13.500;2023-02-20T12:10:19;9.80;99.90
13835;DHT22;6988;52.614;13.500;2023-02-20T12:15:17;9.80;99.90
13835;DHT22;6988;52.614;13.500;2023-02-20T12:20:15;9.80;99.90
13835;DHT22;6988;52.614;13.500;2023-02-20T12:25:18;9.80;99.90
13835;DHT22;6988;52.614;13.500;2023-02-20T12:30:24;9.80;99.90
13835;DHT22;6988;52.614;13.500;2023-02-20T12:35:30;9.70;99.90
13835;DHT22;6988;52.614;13.500;2023-02-20T12:40:35;9.80;99.90
13835;DHT22;6988;52.614;13.500;2023-02-20T12:45:42;9.80;99.90
13835;DHT22;6988;52.614;13.500;2023-02-20T12:50:51;9.80;99.90
13835;DHT22;6988;52.614;13.500;2023-02-20T12:55:57;9.90;99.90
13835;DHT22;6988;52.614;13.500;2023-02-20T13:00:59;9.90;99.90
13835;DHT22;6988;52.614;13.500;2023-02-20T13:05:53;9.80;99.90
13835;DHT22;6988;52.614;13.500;2023-02-20T13:10:51;9.80;99.90
13835;DHT22;6988;52.614;13.500;2023-02-20T13:15:53;9.80;99.90
13835;DHT22;6988;52.614;13.500;2023-02-20T13:20:57;9.70;99.90
13835;DHT22;6988;52.614;13.500;2023-02-20T13:25:54;9.70;99.90
13835;DHT22;6988;52.614;13.500;2023-02-20T13:31:07;9.60;99.90
13835;DHT22;6988;52.614;13.500;2023-02-20T13:36:01;9.50;99.90
13835;DHT22;6988;52.614;13.500;2023-02-20T13:41:05;9.40;99.90
13835;DHT22;6988;52.614;13.500;2023-02-20T13:46:16;9.30;99.90
13835;DHT22;6988;52.614;13.500;2023-02-20T13:51:31;9.10;99.90
13835;DHT22;6988;52.614;13.500;2023-02-20T13:56:41;9.10;99.90
13835;DHT22;6988;52.614;13.500;2023-02-20T14:02:04;9.00;99.90
13835;DHT22;6988;52.614;13.500;2023-02-20T14:07:06;9.00;99.90
13835;DHT22;6988;52.614;13.500;2023-02-20T14:12:04;9.00;99.90
13835;DHT22;6988;52.614;13.500;2023-02-20T14:17:11;8.90;99.90
13835;DHT22;6988;52.614;13.500;2023-02-20T14:22:24;8.90;99.90
13835;DHT22;6988;52.614;13.500;2023-02-20T14:27:26;9.00;99.90
13835;DHT22;6988;52.614;13.500;2023-02-20T14:32:20;9.00;99.90
13835;DHT22;6988;52.614;13.500;2023-02-20T14:37:15;9.00;99.90
13835;DHT22;6988;52.614;13.500;2023-02-20T14:42:17;9.00;99.90
13835;DHT22;6988;52.614;13.500;2023-02-20T14:47:13;9.10;99.90
13835;DHT22;6988;52.614;13.500;2023-02-20T14:52:20;9.10;99.90
13835;DHT22;6988;52.614;13.500;2023-02-20T14:57:14;9.10;99.90
13835;DHT22;6988;52.614;13.500;2023-02-20T15:02:15;9.20;99.90
13835;DHT22;6988;52.614;13.500;2023-02-20T15:07:11;9.20;99.90
13835;DHT22;6988;52.614;13.500;2023-02-20T15:12:06;9.20;99.90
13835;DHT22;6988;52.614;13.500;2023-02-20T15:17:19;9.20;99.90
13835;DHT22;6988;52.614;13.500;2023-02-20T15:22:28;9.30;99.90
13835;DHT22;6988;52.614;13.500;2023-02-20T15:27:24;9.40;99.90
13835;DHT22;6988;52.614;13.500;2023-02-20T15:32:20;9.40;99.90
13835;DHT22;6988;52.614;13.500;2023-02-20T15:37:18;9.40;99.90
13835;DHT22;6988;52.614;13.500;2023-02-20T15:42:14;9.50;99.90
13835;DHT22;6988;52.614;13.500;2023-02-20T15:47:08;9.40;99.90
13835;DHT22;6988;52.614;13.500;2023-02-20T15:52:00;9.40;99.90
13835;DHT22;6988;52.614;13.500;2023-02-20T15:56:52;9.40;99.90
13835;DHT22;6988;52.614;13.500;2023-02-20T16:01:44;9.50;99.90
13835;DHT22;6988;52.614;13.500;2023-02-20T16:06:39;9.50;99.90
13835;DHT22;6988;52.614;13.500;2023-02-20T16:11:36;9.40;99.90
13835;DHT22;6988;52.614;13.500;2023-02-20T16:16:32;9.30;99.90
13835;DHT22;6988;52.614;13.500;2023-02-20T16:21:29;9.30;99.90
13835;DHT22;6988;52.614;13.500;2023-02-20T16:26:25;9.30;99.90
13835;DHT22;6988;52.614;13.500;2023-02-20T16:31:19;9.30;99.90
13835;DHT22;6988;52.614;13.500;2023-02-20T16:36:11;9.20;99.90
13835;DHT22;6988;52.614;13.500;2023-02-20T16:41:03;9.20;99.90
13835;DHT22;6988;52.614;13.500;2023-02-20T16:45:57;9.20;99.90
13835;DHT22;6988;52.614;13.500;2023-02-20T16:50:51;9.10;99.90
13835;DHT22;6988;52.614;13.500;2023-02-20T16:55:43;9.10;99.90
13835;DHT22;6988;52.614;13.500;2023-02-20T17:00:38;9.00;99.90
13835;DHT22;6988;52.614;13.500;2023-02-20T17:05:35;9.10;99.90
13835;DHT22;6988;52.614;13.500;2023-02-20T17:10:29;8.90;99.90
13835;DHT22;6988;52.614;13.500;2023-02-20T17:15:22;8.90;99.90
13835;DHT22;6988;52.614;13.500;2023-02-20T17:20:17;8.90;99.90
13835;DHT22;6988;52.614;13.500;2023-02-20T17:25:13;8.80;99.90
13835;DHT22;6988;52.614;13.500;2023-02-20T17:30:08;8.80;99.90
13835;DHT22;6988;52.614;13.500;2023-02-20T17:35:05;8.80;99.90
13835;DHT22;6988;52.614;13.500;2023-02-20T17:39:57;8.70;99.90
13835;DHT22;6988;52.614;13.500;2023-02-20T17:44:51;8.70;99.90
13835;DHT22;6988;52.614;13.500;2023-02-20T17:49:47;8.60;99.90
13835;DHT22;6988;52.614;13.500;2023-02-20T17:54:43;8.60;99.90
13835;DHT22;6988;52.614;13.500;2023-02-20T17:59:37;8.60;99.90
13835;DHT22;6988;52.614;13.500;2023-02-20T18:04:30;8.60;99.90
13835;DHT22;6988;52.614;13.500;2023-02-20T18:09:22;8.60;99.90
13835;DHT22;6988;52.614;13.500;2023-02-20T18:14:15;8.60;99.90
13835;DHT22;6988;52.614;13.500;2023-02-20T18:19:08;8.60;99.90
13835;DHT22;6988;52.614;13.500;2023-02-20T18:24:05;8.60;99.90
13835;DHT22;6988;52.614;13.500;2023-02-20T18:28:57;8.60;99.90
13835;DHT22;6988;52.614;13.500;2023-02-20T18:33:49;8.70;99.90
13835;DHT22;6988;52.614;13.500;2023-02-20T18:38:41;8.60;99.90
13835;DHT22;6988;52.614;13.500;2023-02-20T18:43:34;8.50;99.90
13835;DHT22;6988;52.614;13.500;2023-02-20T18:48:26;8.50;99.90
13835;DHT22;6988;52.614;13.500;2023-02-20T18:53:17;8.50;99.90
13835;DHT22;6988;52.614;13.500;2023-02-20T19:04:43;8.50;99.90
13835;DHT22;6988;52.614;13.500;2023-02-20T19:09:35;8.50;99.90
13835;DHT22;6988;52.614;13.500;2023-02-20T19:14:27;8.50;99.90
13835;DHT22;6988;52.614;13.500;2023-02-20T19:19:21;8.50;99.90
13835;DHT22;6988;52.614;13.500;2023-02-20T19:24:15;8.50;99.90
13835;DHT22;6988;52.614;13.500;2023-02-20T19:29:08;8.60;99.90
13835;DHT22;6988;52.614;13.500;2023-02-20T19:34:00;8.60;99.90
13835;DHT22;6988;52.614;13.500;2023-02-20T19:38:52;8.60;99.90
13835;DHT22;6988;52.614;13.500;2023-02-20T19:43:46;8.60;99.90
13835;DHT22;6988;52.614;13.500;2023-02-20T19:48:38;8.50;99.90
13835;DHT22;6988;52.614;13.500;2023-02-20T19:53:29;8.60;99.90
13835;DHT22;6988;52.614;13.500;2023-02-20T19:58:23;8.60;99.90
13835;DHT22;6988;52.614;13.500;2023-02-20T20:03:16;8.60;99.90
13835;DHT22;6988;52.614;13.500;2023-02-20T20:08:08;8.70;99.90
13835;DHT22;6988;52.614;13.500;2023-02-20T20:13:00;8.70;99.90
13835;DHT22;6988;52.614;13.500;2023-02-20T20:17:53;8.70;99.90
13835;DHT22;6988;52.614;13.500;2023-02-20T20:22:48;8.70;99.90
13835;DHT22;6988;52.614;13.500;2023-02-20T20:27:41;8.80;99.90
13835;DHT22;6988;52.614;13.500;2023-02-20T20:32:33;8.90;99.90
13835;DHT22;6988;52.614;13.500;2023-02-20T20:37:26;8.80;99.90
13835;DHT22;6988;52.614;13.500;2023-02-20T20:42:20;8.90;99.90
13835;DHT22;6988;52.614;13.500;2023-02-20T20:47:14;9.00;99.90
13835;DHT22;6988;52.614;13.500;2023-02-20T20:52:06;8.90;99.90
13835;DHT22;6988;52.614;13.500;2023-02-20T20:56:58;9.00;99.90
13835;DHT22;6988;52.614;13.500;2023-02-20T21:01:51;9.00;99.90
13835;DHT22;6988;52.614;13.500;2023-02-20T21:06:42;9.10;99.90
13835;DHT22;6988;52.614;13.500;2023-02-20T21:11:34;9.10;99.90
13835;DHT22;6988;52.614;13.500;2023-02-20T21:16:26;9.10;99.90
13835;DHT22;6988;52.614;13.500;2023-02-20T21:21:23;9.00;99.90
13835;DHT22;6988;52.614;13.500;2023-02-20T21:26:16;9.10;99.90
13835;DHT22;6988;52.614;13.500;2023-02-20T21:31:08;9.10;99.90
13835;DHT22;6988;52.614;13.500;2023-02-20T21:36:00;9.30;99.90
13835;DHT22;6988;52.614;13.500;2023-02-20T21:40:55;9.20;99.90
13835;DHT22;6988;52.614;13.500;2023-02-20T21:45:47;9.20;99.90
13835;DHT22;6988;52.614;13.500;2023-02-20T21:50:39;9.20;99.90
13835;DHT22;6988;52.614;13.500;2023-02-20T21:55:31;9.20;99.90
13835;DHT22;6988;52.614;13.500;2023-02-20T22:00:24;9.30;99.90
13835;DHT22;6988;52.614;13.500;2023-02-20T22:05:15;9.30;99.90
13835;DHT22;6988;52.614;13.500;2023-02-20T22:10:07;9.30;99.90
13835;DHT22;6988;52.614;13.500;2023-02-20T22:15:17;9.30;99.90
13835;DHT22;6988;52.614;13.500;2023-02-20T22:20:28;9.30;99.90
13835;DHT22;6988;52.614;13.500;2023-02-20T22:25:37;9.30;99.90
13835;DHT22;6988;52.614;13.500;2023-02-20T22:30:46;9.20;99.90
13835;DHT22;6988;52.614;13.500;2023-02-20T22:35:57;9.10;99.90
13835;DHT22;6988;52.614;13.500;2023-02-20T22:41:06;9.20;99.90
13835;DHT22;6988;52.614;13.500;2023-02-20T23:04:47;8.80;99.90
13835;DHT22;6988;52.614;13.500;2023-02-20T23:09:57;8.80;99.90
13835;DHT22;6988;52.614;13.500;2023-02-20T23:15:07;8.90;99.90
13835;DHT22;6988;52.614;13.500;2023-02-20T23:20:20;9.00;99.90
13835;DHT22;6988;52.614;13.500;2023-02-20T23:25:31;9.10;99.90
13835;DHT22;6988;52.614;13.500;2023-02-20T23:30:40;9.00;99.90
13835;DHT22;6988;52.614;13.500;2023-02-20T23:35:51;9.00;99.90
13835;DHT22;6988;52.614;13.500;2023-02-20T23:41:00;9.10;99.90
13835;DHT22;6988;52.614;13.500;2023-02-20T23:46:10;9.10;99.90
13835;DHT22;6988;52.614;13.500;2023-02-20T23:51:21;9.10;99.90
13835;DHT22;6988;52.614;13.500;2023-02-20T23:56:30;9.10;99.90
